sensor_id;sensor_type;location;lat;lon;timestamp;P1;durP1;ratioP1;P2;durP2;ratioP2
74335;SDS011;62755;-33.398;-70.572;2023-04-25T00:02:41;32.15;;;13.75;;
74335;SDS011;62755;-33.398;-70.572;2023-04-25T00:05:32;35.58;;;17.45;;
74335;SDS011;62755;-33.398;-70.572;2023-04-25T00:08:24;46.63;;;23.02;;
74335;SDS011;62755;-33.398;-70.572;2023-04-25T00:11:14;35.00;;;14.68;;
74335;SDS011;62755;-33.398;-70.572;2023-04-25T00:14:03;46.00;;;17.60;;
74335;SDS011;62755;-33.398;-70.572;2023-04-25T00:16:53;37.97;;;14.05;;
74335;SDS011;62755;-33.398;-70.572;2023-04-25T00:19:43;43.63;;;13.73;;
74335;SDS011;62755;-33.398;-70.572;2023-04-25T00:22:33;43.58;;;13.82;;
74335;SDS011;62755;-33.398;-70.572;2023-04-25T00:25:25;39.28;;;13.15;;
74335;SDS011;62755;-33.398;-70.572;2023-04-25T00:28:14;45.92;;;14.10;;
74335;SDS011;62755;-33.398;-70.572;2023-04-25T00:31:04;41.28;;;14.57;;
74335;SDS011;62755;-33.398;-70.572;2023-04-25T00:33:54;43.35;;;13.85;;
74335;SDS011;62755;-33.398;-70.572;2023-04-25T00:36:43;43.60;;;14.40;;
74335;SDS011;62755;-33.398;-70.572;2023-04-25T00:39:33;36.38;;;14.00;;
74335;SDS011;62755;-33.398;-70.572;2023-04-25T00:42:24;42.17;;;14.52;;
74335;SDS011;62755;-33.398;-70.572;2023-04-25T00:45:14;44.58;;;13.82;;
74335;SDS011;62755;-33.398;-70.572;2023-04-25T00:48:05;41.47;;;13.60;;
74335;SDS011;62755;-33.398;-70.572;2023-04-25T00:50:57;43.55;;;13.63;;
74335;SDS011;62755;-33.398;-70.572;2023-04-25T00:53:47;39.20;;;13.77;;
74335;SDS011;62755;-33.398;-70.572;2023-04-25T00:56:38;50.80;;;14.25;;
74335;SDS011;62755;-33.398;-70.572;2023-04-25T00:59:30;47.53;;;14.43;;
74335;SDS011;62755;-33.398;-70.572;2023-04-25T01:02:20;34.70;;;13.60;;
74335;SDS011;62755;-33.398;-70.572;2023-04-25T01:05:09;44.90;;;13.93;;
74335;SDS011;62755;-33.398;-70.572;2023-04-25T01:07:59;42.72;;;13.82;;
74335;SDS011;62755;-33.398;-70.572;2023-04-25T01:10:49;38.70;;;13.43;;
74335;SDS011;62755;-33.398;-70.572;2023-04-25T01:13:39;36.78;;;12.68;;
74335;SDS011;62755;-33.398;-70.572;2023-04-25T01:16:30;38.33;;;13.70;;
74335;SDS011;62755;-33.398;-70.572;2023-04-25T01:19:20;45.65;;;12.95;;
74335;SDS011;62755;-33.398;-70.572;2023-04-25T01:22:12;37.75;;;12.80;;
74335;SDS011;62755;-33.398;-70.572;2023-04-25T01:25:03;40.42;;;13.73;;
74335;SDS011;62755;-33.398;-70.572;2023-04-25T01:27:54;32.78;;;13.10;;
74335;SDS011;62755;-33.398;-70.572;2023-04-25T01:30:44;47.13;;;13.85;;
74335;SDS011;62755;-33.398;-70.572;2023-04-25T01:33:35;46.50;;;13.55;;
74335;SDS011;62755;-33.398;-70.572;2023-04-25T01:36:25;44.05;;;13.20;;
74335;SDS011;62755;-33.398;-70.572;2023-04-25T01:39:17;38.63;;;13.30;;
74335;SDS011;62755;-33.398;-70.572;2023-04-25T01:42:07;36.05;;;12.75;;
74335;SDS011;62755;-33.398;-70.572;2023-04-25T01:44:56;38.22;;;11.73;;
74335;SDS011;62755;-33.398;-70.572;2023-04-25T01:47:46;28.40;;;11.55;;
74335;SDS011;62755;-33.398;-70.572;2023-04-25T01:50:37;26.63;;;10.35;;
74335;SDS011;62755;-33.398;-70.572;2023-04-25T01:53:27;25.00;;;9.00;;
74335;SDS011;62755;-33.398;-70.572;2023-04-25T01:56:19;35.63;;;10.05;;
74335;SDS011;62755;-33.398;-70.572;2023-04-25T01:59:09;27.00;;;9.35;;
74335;SDS011;62755;-33.398;-70.572;2023-04-25T02:01:58;37.15;;;10.43;;
74335;SDS011;62755;-33.398;-70.572;2023-04-25T02:04:49;23.10;;;9.10;;
74335;SDS011;62755;-33.398;-70.572;2023-04-25T02:07:40;31.05;;;8.75;;
74335;SDS011;62755;-33.398;-70.572;2023-04-25T02:10:29;30.45;;;9.50;;
74335;SDS011;62755;-33.398;-70.572;2023-04-25T02:13:21;28.15;;;9.25;;
74335;SDS011;62755;-33.398;-70.572;2023-04-25T02:16:10;23.80;;;9.43;;
74335;SDS011;62755;-33.398;-70.572;2023-04-25T02:19:00;20.70;;;11.80;;
74335;SDS011;62755;-33.398;-70.572;2023-04-25T02:21:49;27.40;;;13.18;;
74335;SDS011;62755;-33.398;-70.572;2023-04-25T02:24:39;36.58;;;10.85;;
74335;SDS011;62755;-33.398;-70.572;2023-04-25T02:27:28;37.30;;;10.93;;
74335;SDS011;62755;-33.398;-70.572;2023-04-25T02:30:20;28.40;;;10.65;;
74335;SDS011;62755;-33.398;-70.572;2023-04-25T02:33:10;24.80;;;12.68;;
74335;SDS011;62755;-33.398;-70.572;2023-04-25T02:35:59;36.97;;;12.40;;
74335;SDS011;62755;-33.398;-70.572;2023-04-25T02:38:49;37.92;;;15.35;;
74335;SDS011;62755;-33.398;-70.572;2023-04-25T02:41:38;45.65;;;25.73;;
74335;SDS011;62755;-33.398;-70.572;2023-04-25T02:44:28;61.75;;;39.60;;
74335;SDS011;62755;-33.398;-70.572;2023-04-25T02:47:19;31.02;;;14.15;;
74335;SDS011;62755;-33.398;-70.572;2023-04-25T02:50:09;31.00;;;15.30;;
74335;SDS011;62755;-33.398;-70.572;2023-04-25T02:52:59;34.28;;;18.33;;
74335;SDS011;62755;-33.398;-70.572;2023-04-25T02:55:50;30.88;;;18.00;;
74335;SDS011;62755;-33.398;-70.572;2023-04-25T02:58:39;35.53;;;22.27;;
74335;SDS011;62755;-33.398;-70.572;2023-04-25T03:01:29;26.80;;;14.18;;
74335;SDS011;62755;-33.398;-70.572;2023-04-25T03:04:20;30.73;;;16.17;;
74335;SDS011;62755;-33.398;-70.572;2023-04-25T03:07:10;41.75;;;20.83;;
74335;SDS011;62755;-33.398;-70.572;2023-04-25T03:10:00;55.78;;;29.90;;
74335;SDS011;62755;-33.398;-70.572;2023-04-25T03:12:49;78.53;;;46.03;;
74335;SDS011;62755;-33.398;-70.572;2023-04-25T03:15:39;152.23;;;96.60;;
74335;SDS011;62755;-33.398;-70.572;2023-04-25T03:18:29;37.15;;;17.73;;
74335;SDS011;62755;-33.398;-70.572;2023-04-25T03:21:20;31.13;;;14.02;;
74335;SDS011;62755;-33.398;-70.572;2023-04-25T03:24:09;29.88;;;12.65;;
74335;SDS011;62755;-33.398;-70.572;2023-04-25T03:26:59;22.25;;;10.80;;
74335;SDS011;62755;-33.398;-70.572;2023-04-25T03:29:49;27.10;;;11.10;;
74335;SDS011;62755;-33.398;-70.572;2023-04-25T03:32:39;26.60;;;11.05;;
74335;SDS011;62755;-33.398;-70.572;2023-04-25T03:35:28;31.45;;;11.60;;
74335;SDS011;62755;-33.398;-70.572;2023-04-25T03:38:19;39.15;;;16.38;;
74335;SDS011;62755;-33.398;-70.572;2023-04-25T03:41:09;46.95;;;27.80;;
74335;SDS011;62755;-33.398;-70.572;2023-04-25T03:43:59;113.22;;;62.05;;
74335;SDS011;62755;-33.398;-70.572;2023-04-25T03:46:50;29.67;;;12.23;;
74335;SDS011;62755;-33.398;-70.572;2023-04-25T03:49:39;35.85;;;12.23;;
74335;SDS011;62755;-33.398;-70.572;2023-04-25T03:52:30;35.50;;;11.30;;
74335;SDS011;62755;-33.398;-70.572;2023-04-25T03:55:21;31.45;;;12.05;;
74335;SDS011;62755;-33.398;-70.572;2023-04-25T03:58:10;29.90;;;10.85;;
74335;SDS011;62755;-33.398;-70.572;2023-04-25T04:01:00;22.55;;;10.57;;
74335;SDS011;62755;-33.398;-70.572;2023-04-25T04:03:53;28.13;;;9.27;;
74335;SDS011;62755;-33.398;-70.572;2023-04-25T04:06:43;34.58;;;8.48;;
74335;SDS011;62755;-33.398;-70.572;2023-04-25T04:09:32;25.13;;;8.40;;
74335;SDS011;62755;-33.398;-70.572;2023-04-25T04:12:24;17.50;;;8.38;;
74335;SDS011;62755;-33.398;-70.572;2023-04-25T04:15:13;21.35;;;8.77;;
74335;SDS011;62755;-33.398;-70.572;2023-04-25T04:18:03;25.48;;;8.27;;
74335;SDS011;62755;-33.398;-70.572;2023-04-25T04:20:52;20.67;;;8.35;;
74335;SDS011;62755;-33.398;-70.572;2023-04-25T04:23:43;23.65;;;7.35;;
74335;SDS011;62755;-33.398;-70.572;2023-04-25T04:26:33;18.42;;;8.48;;
74335;SDS011;62755;-33.398;-70.572;2023-04-25T04:29:25;17.95;;;7.88;;
74335;SDS011;62755;-33.398;-70.572;2023-04-25T04:32:14;26.33;;;10.05;;
74335;SDS011;62755;-33.398;-70.572;2023-04-25T04:35:05;21.60;;;11.15;;
74335;SDS011;62755;-33.398;-70.572;2023-04-25T04:37:57;15.00;;;9.18;;
74335;SDS011;62755;-33.398;-70.572;2023-04-25T04:40:46;24.42;;;11.50;;
74335;SDS011;62755;-33.398;-70.572;2023-04-25T04:43:36;22.30;;;9.63;;
74335;SDS011;62755;-33.398;-70.572;2023-04-25T04:46:27;19.30;;;8.95;;
74335;SDS011;62755;-33.398;-70.572;2023-04-25T04:49:17;23.83;;;11.07;;
74335;SDS011;62755;-33.398;-70.572;2023-04-25T04:52:06;36.60;;;14.48;;
74335;SDS011;62755;-33.398;-70.572;2023-04-25T04:54:56;25.35;;;12.00;;
74335;SDS011;62755;-33.398;-70.572;2023-04-25T04:57:45;36.97;;;16.92;;
74335;SDS011;62755;-33.398;-70.572;2023-04-25T05:00:35;43.10;;;14.95;;
74335;SDS011;62755;-33.398;-70.572;2023-04-25T05:03:26;49.47;;;22.00;;
74335;SDS011;62755;-33.398;-70.572;2023-04-25T05:06:16;43.33;;;22.80;;
74335;SDS011;62755;-33.398;-70.572;2023-04-25T05:09:07;44.88;;;19.23;;
74335;SDS011;62755;-33.398;-70.572;2023-04-25T05:11:56;57.85;;;28.25;;
74335;SDS011;62755;-33.398;-70.572;2023-04-25T05:14:46;50.60;;;25.55;;
74335;SDS011;62755;-33.398;-70.572;2023-04-25T05:17:37;26.15;;;11.95;;
74335;SDS011;62755;-33.398;-70.572;2023-04-25T05:20:29;21.73;;;9.73;;
74335;SDS011;62755;-33.398;-70.572;2023-04-25T05:23:18;13.82;;;5.55;;
74335;SDS011;62755;-33.398;-70.572;2023-04-25T05:26:07;11.70;;;5.53;;
74335;SDS011;62755;-33.398;-70.572;2023-04-25T05:28:59;12.90;;;6.00;;
74335;SDS011;62755;-33.398;-70.572;2023-04-25T05:31:49;11.18;;;5.65;;
74335;SDS011;62755;-33.398;-70.572;2023-04-25T05:34:39;7.85;;;4.05;;
74335;SDS011;62755;-33.398;-70.572;2023-04-25T05:37:30;22.15;;;4.55;;
74335;SDS011;62755;-33.398;-70.572;2023-04-25T05:40:20;6.88;;;3.78;;
74335;SDS011;62755;-33.398;-70.572;2023-04-25T05:43:09;11.85;;;4.28;;
74335;SDS011;62755;-33.398;-70.572;2023-04-25T05:45:59;11.13;;;4.38;;
74335;SDS011;62755;-33.398;-70.572;2023-04-25T05:48:48;10.25;;;3.78;;
74335;SDS011;62755;-33.398;-70.572;2023-04-25T05:51:37;11.52;;;4.22;;
74335;SDS011;62755;-33.398;-70.572;2023-04-25T05:54:29;11.10;;;4.25;;
74335;SDS011;62755;-33.398;-70.572;2023-04-25T05:57:19;13.38;;;5.32;;
74335;SDS011;62755;-33.398;-70.572;2023-04-25T06:00:10;18.10;;;7.00;;
74335;SDS011;62755;-33.398;-70.572;2023-04-25T06:03:01;17.73;;;7.28;;
74335;SDS011;62755;-33.398;-70.572;2023-04-25T06:05:53;12.25;;;7.70;;
74335;SDS011;62755;-33.398;-70.572;2023-04-25T06:08:42;20.67;;;10.50;;
74335;SDS011;62755;-33.398;-70.572;2023-04-25T06:11:34;19.02;;;7.90;;
74335;SDS011;62755;-33.398;-70.572;2023-04-25T06:14:23;20.70;;;10.98;;
74335;SDS011;62755;-33.398;-70.572;2023-04-25T06:17:13;25.95;;;10.65;;
74335;SDS011;62755;-33.398;-70.572;2023-04-25T06:20:02;22.83;;;10.02;;
74335;SDS011;62755;-33.398;-70.572;2023-04-25T06:22:53;23.73;;;11.30;;
74335;SDS011;62755;-33.398;-70.572;2023-04-25T06:25:43;25.75;;;12.50;;
74335;SDS011;62755;-33.398;-70.572;2023-04-25T06:28:34;28.20;;;12.20;;
74335;SDS011;62755;-33.398;-70.572;2023-04-25T06:31:23;21.05;;;11.23;;
74335;SDS011;62755;-33.398;-70.572;2023-04-25T06:34:14;38.55;;;12.98;;
74335;SDS011;62755;-33.398;-70.572;2023-04-25T06:37:04;40.00;;;11.98;;
74335;SDS011;62755;-33.398;-70.572;2023-04-25T06:39:53;27.02;;;12.98;;
74335;SDS011;62755;-33.398;-70.572;2023-04-25T06:42:43;26.25;;;12.65;;
74335;SDS011;62755;-33.398;-70.572;2023-04-25T06:45:34;24.70;;;13.18;;
74335;SDS011;62755;-33.398;-70.572;2023-04-25T06:48:25;26.23;;;13.02;;
74335;SDS011;62755;-33.398;-70.572;2023-04-25T06:51:15;22.45;;;12.63;;
74335;SDS011;62755;-33.398;-70.572;2023-04-25T06:54:04;29.65;;;11.75;;
74335;SDS011;62755;-33.398;-70.572;2023-04-25T06:56:54;26.23;;;12.75;;
74335;SDS011;62755;-33.398;-70.572;2023-04-25T06:59:44;21.85;;;11.57;;
74335;SDS011;62755;-33.398;-70.572;2023-04-25T07:02:35;19.83;;;10.32;;
74335;SDS011;62755;-33.398;-70.572;2023-04-25T07:05:24;25.25;;;11.07;;
74335;SDS011;62755;-33.398;-70.572;2023-04-25T07:08:14;23.77;;;11.07;;
74335;SDS011;62755;-33.398;-70.572;2023-04-25T07:11:03;29.67;;;10.98;;
74335;SDS011;62755;-33.398;-70.572;2023-04-25T07:13:53;21.50;;;11.98;;
74335;SDS011;62755;-33.398;-70.572;2023-04-25T07:16:42;24.13;;;11.98;;
74335;SDS011;62755;-33.398;-70.572;2023-04-25T07:19:33;25.90;;;11.88;;
74335;SDS011;62755;-33.398;-70.572;2023-04-25T07:22:24;20.90;;;11.15;;
74335;SDS011;62755;-33.398;-70.572;2023-04-25T07:25:14;22.25;;;10.90;;
74335;SDS011;62755;-33.398;-70.572;2023-04-25T07:28:04;26.10;;;10.90;;
74335;SDS011;62755;-33.398;-70.572;2023-04-25T07:30:53;22.65;;;9.63;;
74335;SDS011;62755;-33.398;-70.572;2023-04-25T07:33:44;17.63;;;9.35;;
74335;SDS011;62755;-33.398;-70.572;2023-04-25T07:36:35;16.25;;;7.35;;
74335;SDS011;62755;-33.398;-70.572;2023-04-25T07:39:25;16.75;;;6.68;;
74335;SDS011;62755;-33.398;-70.572;2023-04-25T07:42:15;18.98;;;7.03;;
74335;SDS011;62755;-33.398;-70.572;2023-04-25T07:45:04;19.38;;;6.70;;
74335;SDS011;62755;-33.398;-70.572;2023-04-25T07:47:55;13.32;;;6.20;;
74335;SDS011;62755;-33.398;-70.572;2023-04-25T07:50:44;15.50;;;4.72;;
74335;SDS011;62755;-33.398;-70.572;2023-04-25T07:53:36;9.63;;;3.65;;
74335;SDS011;62755;-33.398;-70.572;2023-04-25T07:56:25;9.75;;;3.65;;
74335;SDS011;62755;-33.398;-70.572;2023-04-25T07:59:14;5.70;;;2.92;;
74335;SDS011;62755;-33.398;-70.572;2023-04-25T08:02:04;9.35;;;2.80;;
74335;SDS011;62755;-33.398;-70.572;2023-04-25T08:04:54;8.38;;;2.20;;
74335;SDS011;62755;-33.398;-70.572;2023-04-25T08:07:43;6.25;;;2.40;;
74335;SDS011;62755;-33.398;-70.572;2023-04-25T08:10:35;8.30;;;2.42;;
74335;SDS011;62755;-33.398;-70.572;2023-04-25T08:13:24;5.97;;;2.70;;
74335;SDS011;62755;-33.398;-70.572;2023-04-25T08:16:14;8.35;;;2.58;;
74335;SDS011;62755;-33.398;-70.572;2023-04-25T08:19:04;6.18;;;2.63;;
74335;SDS011;62755;-33.398;-70.572;2023-04-25T08:21:53;4.50;;;2.40;;
74335;SDS011;62755;-33.398;-70.572;2023-04-25T08:24:42;7.15;;;3.95;;
74335;SDS011;62755;-33.398;-70.572;2023-04-25T08:27:34;14.13;;;6.35;;
74335;SDS011;62755;-33.398;-70.572;2023-04-25T08:30:23;12.15;;;6.32;;
74335;SDS011;62755;-33.398;-70.572;2023-04-25T08:33:13;13.00;;;5.88;;
74335;SDS011;62755;-33.398;-70.572;2023-04-25T08:36:03;15.93;;;5.78;;
74335;SDS011;62755;-33.398;-70.572;2023-04-25T08:38:52;14.35;;;7.15;;
74335;SDS011;62755;-33.398;-70.572;2023-04-25T08:41:42;12.38;;;6.18;;
74335;SDS011;62755;-33.398;-70.572;2023-04-25T08:44:34;13.77;;;6.90;;
74335;SDS011;62755;-33.398;-70.572;2023-04-25T08:47:23;14.82;;;7.78;;
74335;SDS011;62755;-33.398;-70.572;2023-04-25T08:50:15;15.00;;;8.43;;
74335;SDS011;62755;-33.398;-70.572;2023-04-25T08:53:08;23.90;;;11.02;;
74335;SDS011;62755;-33.398;-70.572;2023-04-25T08:56:04;18.70;;;10.65;;
74335;SDS011;62755;-33.398;-70.572;2023-04-25T08:58:55;21.00;;;9.52;;
74335;SDS011;62755;-33.398;-70.572;2023-04-25T09:01:46;21.77;;;10.38;;
74335;SDS011;62755;-33.398;-70.572;2023-04-25T09:04:37;18.35;;;10.13;;
74335;SDS011;62755;-33.398;-70.572;2023-04-25T09:07:26;19.95;;;9.63;;
74335;SDS011;62755;-33.398;-70.572;2023-04-25T09:10:15;15.18;;;8.65;;
74335;SDS011;62755;-33.398;-70.572;2023-04-25T09:13:05;23.85;;;10.25;;
74335;SDS011;62755;-33.398;-70.572;2023-04-25T09:15:56;20.13;;;8.20;;
74335;SDS011;62755;-33.398;-70.572;2023-04-25T09:18:48;17.42;;;9.25;;
74335;SDS011;62755;-33.398;-70.572;2023-04-25T09:21:37;16.13;;;8.65;;
74335;SDS011;62755;-33.398;-70.572;2023-04-25T09:24:36;24.58;;;7.95;;
74335;SDS011;62755;-33.398;-70.572;2023-04-25T09:27:27;18.33;;;7.72;;
74335;SDS011;62755;-33.398;-70.572;2023-04-25T09:30:16;20.73;;;8.43;;
74335;SDS011;62755;-33.398;-70.572;2023-04-25T09:33:06;20.27;;;8.13;;
74335;SDS011;62755;-33.398;-70.572;2023-04-25T09:36:03;16.60;;;7.90;;
74335;SDS011;62755;-33.398;-70.572;2023-04-25T09:38:54;16.23;;;7.18;;
74335;SDS011;62755;-33.398;-70.572;2023-04-25T09:41:44;12.32;;;6.07;;
74335;SDS011;62755;-33.398;-70.572;2023-04-25T09:44:33;9.23;;;3.30;;
74335;SDS011;62755;-33.398;-70.572;2023-04-25T09:47:24;13.73;;;3.15;;
74335;SDS011;62755;-33.398;-70.572;2023-04-25T09:50:14;10.45;;;2.50;;
74335;SDS011;62755;-33.398;-70.572;2023-04-25T09:53:06;5.78;;;3.03;;
74335;SDS011;62755;-33.398;-70.572;2023-04-25T09:55:56;8.18;;;3.10;;
74335;SDS011;62755;-33.398;-70.572;2023-04-25T09:58:47;10.85;;;5.10;;
74335;SDS011;62755;-33.398;-70.572;2023-04-25T10:01:41;15.65;;;6.20;;
74335;SDS011;62755;-33.398;-70.572;2023-04-25T10:04:32;17.73;;;4.90;;
74335;SDS011;62755;-33.398;-70.572;2023-04-25T10:07:23;18.42;;;4.20;;
74335;SDS011;62755;-33.398;-70.572;2023-04-25T10:10:16;10.43;;;3.00;;
74335;SDS011;62755;-33.398;-70.572;2023-04-25T10:13:09;9.32;;;2.72;;
74335;SDS011;62755;-33.398;-70.572;2023-04-25T10:16:00;6.25;;;2.28;;
74335;SDS011;62755;-33.398;-70.572;2023-04-25T10:18:52;3.70;;;2.20;;
74335;SDS011;62755;-33.398;-70.572;2023-04-25T10:21:46;6.95;;;2.25;;
74335;SDS011;62755;-33.398;-70.572;2023-04-25T10:24:39;6.05;;;1.80;;
74335;SDS011;62755;-33.398;-70.572;2023-04-25T10:27:31;14.75;;;1.92;;
74335;SDS011;62755;-33.398;-70.572;2023-04-25T10:30:21;5.05;;;1.60;;
74335;SDS011;62755;-33.398;-70.572;2023-04-25T10:33:16;4.03;;;1.85;;
74335;SDS011;62755;-33.398;-70.572;2023-04-25T10:36:10;10.93;;;2.42;;
74335;SDS011;62755;-33.398;-70.572;2023-04-25T10:39:03;7.75;;;2.08;;
74335;SDS011;62755;-33.398;-70.572;2023-04-25T10:41:55;10.43;;;2.00;;
74335;SDS011;62755;-33.398;-70.572;2023-04-25T10:45:01;3.28;;;1.60;;
74335;SDS011;62755;-33.398;-70.572;2023-04-25T10:47:52;8.45;;;1.70;;
74335;SDS011;62755;-33.398;-70.572;2023-04-25T10:50:42;2.20;;;1.35;;
74335;SDS011;62755;-33.398;-70.572;2023-04-25T10:53:33;4.60;;;2.13;;
74335;SDS011;62755;-33.398;-70.572;2023-04-25T10:56:24;7.00;;;1.92;;
74335;SDS011;62755;-33.398;-70.572;2023-04-25T10:59:15;5.43;;;1.63;;
74335;SDS011;62755;-33.398;-70.572;2023-04-25T11:02:12;21.25;;;2.15;;
74335;SDS011;62755;-33.398;-70.572;2023-04-25T11:05:01;5.68;;;2.15;;
74335;SDS011;62755;-33.398;-70.572;2023-04-25T11:07:52;6.47;;;1.60;;
74335;SDS011;62755;-33.398;-70.572;2023-04-25T11:10:43;7.80;;;1.90;;
74335;SDS011;62755;-33.398;-70.572;2023-04-25T11:13:33;6.18;;;1.58;;
74335;SDS011;62755;-33.398;-70.572;2023-04-25T11:16:24;16.55;;;2.15;;
74335;SDS011;62755;-33.398;-70.572;2023-04-25T11:19:15;12.32;;;2.75;;
74335;SDS011;62755;-33.398;-70.572;2023-04-25T11:22:07;11.45;;;2.97;;
74335;SDS011;62755;-33.398;-70.572;2023-04-25T11:24:58;17.52;;;2.80;;
74335;SDS011;62755;-33.398;-70.572;2023-04-25T11:27:52;12.02;;;2.88;;
74335;SDS011;62755;-33.398;-70.572;2023-04-25T11:30:47;16.08;;;3.17;;
74335;SDS011;62755;-33.398;-70.572;2023-04-25T11:33:37;7.13;;;2.10;;
74335;SDS011;62755;-33.398;-70.572;2023-04-25T11:36:30;12.27;;;3.53;;
74335;SDS011;62755;-33.398;-70.572;2023-04-25T11:39:20;12.70;;;5.35;;
74335;SDS011;62755;-33.398;-70.572;2023-04-25T11:42:10;9.88;;;5.40;;
74335;SDS011;62755;-33.398;-70.572;2023-04-25T11:44:59;9.48;;;5.28;;
74335;SDS011;62755;-33.398;-70.572;2023-04-25T11:47:49;11.55;;;4.28;;
74335;SDS011;62755;-33.398;-70.572;2023-04-25T11:50:39;17.88;;;2.90;;
74335;SDS011;62755;-33.398;-70.572;2023-04-25T11:53:30;15.90;;;4.00;;
74335;SDS011;62755;-33.398;-70.572;2023-04-25T11:56:20;12.32;;;4.30;;
74335;SDS011;62755;-33.398;-70.572;2023-04-25T11:59:10;19.65;;;6.35;;
74335;SDS011;62755;-33.398;-70.572;2023-04-25T12:02:00;17.52;;;7.53;;
74335;SDS011;62755;-33.398;-70.572;2023-04-25T12:04:49;19.63;;;5.88;;
74335;SDS011;62755;-33.398;-70.572;2023-04-25T12:07:39;18.52;;;4.85;;
74335;SDS011;62755;-33.398;-70.572;2023-04-25T12:10:30;14.13;;;4.75;;
74335;SDS011;62755;-33.398;-70.572;2023-04-25T12:13:20;11.85;;;4.32;;
74335;SDS011;62755;-33.398;-70.572;2023-04-25T12:16:11;16.38;;;5.00;;
74335;SDS011;62755;-33.398;-70.572;2023-04-25T12:19:01;16.30;;;5.88;;
74335;SDS011;62755;-33.398;-70.572;2023-04-25T12:21:50;27.08;;;9.27;;
74335;SDS011;62755;-33.398;-70.572;2023-04-25T12:24:44;22.98;;;8.10;;
74335;SDS011;62755;-33.398;-70.572;2023-04-25T12:27:35;21.50;;;8.25;;
74335;SDS011;62755;-33.398;-70.572;2023-04-25T12:30:25;17.83;;;6.57;;
74335;SDS011;62755;-33.398;-70.572;2023-04-25T12:33:15;23.98;;;8.73;;
74335;SDS011;62755;-33.398;-70.572;2023-04-25T12:36:04;19.15;;;6.95;;
74335;SDS011;62755;-33.398;-70.572;2023-04-25T12:38:57;13.23;;;4.75;;
74335;SDS011;62755;-33.398;-70.572;2023-04-25T12:41:50;9.38;;;2.90;;
74335;SDS011;62755;-33.398;-70.572;2023-04-25T12:44:41;14.18;;;4.13;;
74335;SDS011;62755;-33.398;-70.572;2023-04-25T12:47:32;20.52;;;4.80;;
74335;SDS011;62755;-33.398;-70.572;2023-04-25T12:50:21;15.13;;;4.63;;
74335;SDS011;62755;-33.398;-70.572;2023-04-25T12:53:11;17.85;;;5.72;;
74335;SDS011;62755;-33.398;-70.572;2023-04-25T12:56:00;25.70;;;7.68;;
74335;SDS011;62755;-33.398;-70.572;2023-04-25T12:58:49;31.45;;;9.40;;
74335;SDS011;62755;-33.398;-70.572;2023-04-25T13:01:41;21.23;;;9.98;;
74335;SDS011;62755;-33.398;-70.572;2023-04-25T13:04:31;25.60;;;10.43;;
74335;SDS011;62755;-33.398;-70.572;2023-04-25T13:07:20;29.50;;;10.57;;
74335;SDS011;62755;-33.398;-70.572;2023-04-25T13:10:10;17.85;;;5.22;;
74335;SDS011;62755;-33.398;-70.572;2023-04-25T13:13:00;18.70;;;7.25;;
74335;SDS011;62755;-33.398;-70.572;2023-04-25T13:15:49;21.67;;;7.70;;
74335;SDS011;62755;-33.398;-70.572;2023-04-25T13:18:41;26.15;;;9.90;;
74335;SDS011;62755;-33.398;-70.572;2023-04-25T13:21:30;24.65;;;9.68;;
74335;SDS011;62755;-33.398;-70.572;2023-04-25T13:24:20;29.10;;;9.25;;
74335;SDS011;62755;-33.398;-70.572;2023-04-25T13:27:09;26.50;;;8.80;;
74335;SDS011;62755;-33.398;-70.572;2023-04-25T13:29:59;28.98;;;9.38;;
74335;SDS011;62755;-33.398;-70.572;2023-04-25T13:32:53;34.30;;;9.02;;
74335;SDS011;62755;-33.398;-70.572;2023-04-25T13:35:50;23.73;;;8.80;;
74335;SDS011;62755;-33.398;-70.572;2023-04-25T13:38:42;24.23;;;9.15;;
74335;SDS011;62755;-33.398;-70.572;2023-04-25T13:41:33;25.42;;;9.23;;
74335;SDS011;62755;-33.398;-70.572;2023-04-25T13:44:22;38.50;;;10.57;;
74335;SDS011;62755;-33.398;-70.572;2023-04-25T13:47:12;28.38;;;10.52;;
74335;SDS011;62755;-33.398;-70.572;2023-04-25T13:50:01;37.92;;;13.73;;
74335;SDS011;62755;-33.398;-70.572;2023-04-25T13:52:53;31.58;;;12.18;;
74335;SDS011;62755;-33.398;-70.572;2023-04-25T13:55:43;34.38;;;11.02;;
74335;SDS011;62755;-33.398;-70.572;2023-04-25T13:58:32;36.00;;;10.75;;
74335;SDS011;62755;-33.398;-70.572;2023-04-25T14:01:22;23.55;;;10.10;;
74335;SDS011;62755;-33.398;-70.572;2023-04-25T14:04:12;23.83;;;9.70;;
74335;SDS011;62755;-33.398;-70.572;2023-04-25T14:07:02;34.10;;;10.05;;
74335;SDS011;62755;-33.398;-70.572;2023-04-25T14:09:54;44.53;;;11.35;;
74335;SDS011;62755;-33.398;-70.572;2023-04-25T14:12:44;34.63;;;10.95;;
74335;SDS011;62755;-33.398;-70.572;2023-04-25T14:15:34;29.70;;;9.50;;
74335;SDS011;62755;-33.398;-70.572;2023-04-25T14:18:23;37.90;;;10.55;;
74335;SDS011;62755;-33.398;-70.572;2023-04-25T14:21:13;32.92;;;10.63;;
74335;SDS011;62755;-33.398;-70.572;2023-04-25T14:24:03;34.63;;;10.27;;
74335;SDS011;62755;-33.398;-70.572;2023-04-25T14:26:55;30.95;;;9.75;;
74335;SDS011;62755;-33.398;-70.572;2023-04-25T14:29:44;24.08;;;9.25;;
74335;SDS011;62755;-33.398;-70.572;2023-04-25T14:32:34;30.02;;;9.13;;
74335;SDS011;62755;-33.398;-70.572;2023-04-25T14:35:23;28.42;;;9.43;;
74335;SDS011;62755;-33.398;-70.572;2023-04-25T14:38:13;28.55;;;9.27;;
74335;SDS011;62755;-33.398;-70.572;2023-04-25T14:41:03;20.45;;;7.30;;
74335;SDS011;62755;-33.398;-70.572;2023-04-25T14:43:54;24.92;;;8.43;;
74335;SDS011;62755;-33.398;-70.572;2023-04-25T14:46:44;19.83;;;6.85;;
74335;SDS011;62755;-33.398;-70.572;2023-04-25T14:49:48;20.90;;;6.72;;
74335;SDS011;62755;-33.398;-70.572;2023-04-25T14:52:40;20.20;;;7.13;;
74335;SDS011;62755;-33.398;-70.572;2023-04-25T14:55:31;16.58;;;6.35;;
74335;SDS011;62755;-33.398;-70.572;2023-04-25T14:58:20;16.52;;;6.95;;
74335;SDS011;62755;-33.398;-70.572;2023-04-25T15:01:12;18.00;;;6.90;;
74335;SDS011;62755;-33.398;-70.572;2023-04-25T15:04:02;17.13;;;7.22;;
74335;SDS011;62755;-33.398;-70.572;2023-04-25T15:06:51;23.65;;;8.07;;
74335;SDS011;62755;-33.398;-70.572;2023-04-25T15:09:41;31.35;;;7.20;;
74335;SDS011;62755;-33.398;-70.572;2023-04-25T15:12:30;23.80;;;7.13;;
74335;SDS011;62755;-33.398;-70.572;2023-04-25T15:15:20;18.65;;;7.50;;
74335;SDS011;62755;-33.398;-70.572;2023-04-25T15:18:11;16.67;;;7.05;;
74335;SDS011;62755;-33.398;-70.572;2023-04-25T15:21:01;23.17;;;8.40;;
74335;SDS011;62755;-33.398;-70.572;2023-04-25T15:23:50;23.17;;;7.68;;
74335;SDS011;62755;-33.398;-70.572;2023-04-25T15:26:41;21.60;;;9.70;;
74335;SDS011;62755;-33.398;-70.572;2023-04-25T15:29:31;25.60;;;12.77;;
74335;SDS011;62755;-33.398;-70.572;2023-04-25T15:32:21;29.17;;;15.52;;
74335;SDS011;62755;-33.398;-70.572;2023-04-25T15:35:12;31.00;;;18.20;;
74335;SDS011;62755;-33.398;-70.572;2023-04-25T15:38:02;32.92;;;17.27;;
74335;SDS011;62755;-33.398;-70.572;2023-04-25T15:40:52;35.70;;;20.25;;
74335;SDS011;62755;-33.398;-70.572;2023-04-25T15:43:41;40.38;;;18.60;;
74335;SDS011;62755;-33.398;-70.572;2023-04-25T15:46:31;37.58;;;18.73;;
74335;SDS011;62755;-33.398;-70.572;2023-04-25T15:49:20;41.58;;;17.88;;
74335;SDS011;62755;-33.398;-70.572;2023-04-25T15:52:11;41.67;;;20.63;;
74335;SDS011;62755;-33.398;-70.572;2023-04-25T15:55:06;34.45;;;20.05;;
74335;SDS011;62755;-33.398;-70.572;2023-04-25T15:57:56;40.55;;;19.13;;
74335;SDS011;62755;-33.398;-70.572;2023-04-25T16:00:46;41.75;;;19.92;;
74335;SDS011;62755;-33.398;-70.572;2023-04-25T16:03:36;39.20;;;20.20;;
74335;SDS011;62755;-33.398;-70.572;2023-04-25T16:06:26;38.85;;;18.63;;